sensor_id;sensor_type;location;lat;lon;timestamp;temperature;humidity
47791;DHT22;33547;49.044;1.156;2023-02-15T00:03:33;1.20;99.90
47791;DHT22;33547;49.044;1.156;2023-02-15T00:17:25;1.10;99.90
47791;DHT22;33547;49.044;1.156;2023-02-15T00:21:02;1.00;99.90
47791;DHT22;33547;49.044;1.156;2023-02-15T00:37:17;0.90;99.90
47791;DHT22;33547;49.044;1.156;2023-02-15T00:54:23;0.80;99.90
47791;DHT22;33547;49.044;1.156;2023-02-15T01:58:25;0.40;99.90
47791;DHT22;33547;49.044;1.156;2023-02-15T02:56:45;0.00;99.90
47791;DHT22;33547;49.044;1.156;2023-02-15T03:07:18;-0.10;99.90
47791;DHT22;33547;49.044;1.156;2023-02-15T03:14:17;-0.10;99.90
47791;DHT22;33547;49.044;1.156;2023-02-15T03:20:55;-0.20;99.90
47791;DHT22;33547;49.044;1.156;2023-02-15T03:37:55;-0.30;99.90
47791;DHT22;33547;49.044;1.156;2023-02-15T05:04:50;-0.80;99.90
47791;DHT22;33547;49.044;1.156;2023-02-15T05:08:06;-0.90;99.90
47791;DHT22;33547;49.044;1.156;2023-02-15T05:21:40;-0.80;99.90
47791;DHT22;33547;49.044;1.156;2023-02-15T05:24:52;-0.90;99.90
47791;DHT22;33547;49.044;1.156;2023-02-15T05:42:44;-0.70;99.90
47791;DHT22;33547;49.044;1.156;2023-02-15T05:59:31;-0.70;99.90
47791;DHT22;33547;49.044;1.156;2023-02-15T06:02:16;-0.70;99.90
47791;DHT22;33547;49.044;1.156;2023-02-15T06:26:52;-0.80;99.90
47791;DHT22;33547;49.044;1.156;2023-02-15T07:33:32;-0.50;99.90
47791;DHT22;33547;49.044;1.156;2023-02-15T07:43:11;-0.40;99.90
47791;DHT22;33547;49.044;1.156;2023-02-15T07:45:37;-0.30;99.90
47791;DHT22;33547;49.044;1.156;2023-02-15T07:48:05;-0.10;99.90
47791;DHT22;33547;49.044;1.156;2023-02-15T07:50:31;0.10;99.90
47791;DHT22;33547;49.044;1.156;2023-02-15T07:52:57;0.30;99.90
47791;DHT22;33547;49.044;1.156;2023-02-15T07:55:23;0.30;99.90
47791;DHT22;33547;49.044;1.156;2023-02-15T07:57:50;0.50;99.90
47791;DHT22;33547;49.044;1.156;2023-02-15T08:00:18;0.80;99.90
47791;DHT22;33547;49.044;1.156;2023-02-15T08:02:49;1.10;99.90
47791;DHT22;33547;49.044;1.156;2023-02-15T08:05:35;1.50;99.90
47791;DHT22;33547;49.044;1.156;2023-02-15T08:08:01;1.50;99.90
47791;DHT22;33547;49.044;1.156;2023-02-15T08:10:26;1.70;99.90
47791;DHT22;33547;49.044;1.156;2023-02-15T08:13:12;1.90;99.90
47791;DHT22;33547;49.044;1.156;2023-02-15T08:15:38;2.00;99.90
47791;DHT22;33547;49.044;1.156;2023-02-15T08:18:04;2.30;99.90
47791;DHT22;33547;49.044;1.156;2023-02-15T08:20:30;2.40;99.90
47791;DHT22;33547;49.044;1.156;2023-02-15T08:22:56;2.60;99.90
47791;DHT22;33547;49.044;1.156;2023-02-15T08:25:21;2.90;99.90
47791;DHT22;33547;49.044;1.156;2023-02-15T08:27:47;3.30;99.90
47791;DHT22;33547;49.044;1.156;2023-02-15T08:30:13;3.20;99.90
47791;DHT22;33547;49.044;1.156;2023-02-15T08:32:39;3.00;99.90
47791;DHT22;33547;49.044;1.156;2023-02-15T08:35:05;3.20;99.90
47791;DHT22;33547;49.044;1.156;2023-02-15T08:37:31;3.10;99.90
47791;DHT22;33547;49.044;1.156;2023-02-15T08:39:56;2.90;99.90
47791;DHT22;33547;49.044;1.156;2023-02-15T08:42:22;2.90;99.90
47791;DHT22;33547;49.044;1.156;2023-02-15T08:44:48;3.00;99.90
47791;DHT22;33547;49.044;1.156;2023-02-15T08:47:16;3.50;99.90
47791;DHT22;33547;49.044;1.156;2023-02-15T08:49:41;3.90;99.90
47791;DHT22;33547;49.044;1.156;2023-02-15T08:52:07;4.00;99.90
47791;DHT22;33547;49.044;1.156;2023-02-15T08:54:33;4.30;99.90
47791;DHT22;33547;49.044;1.156;2023-02-15T08:56:58;4.60;99.90
47791;DHT22;33547;49.044;1.156;2023-02-15T08:59:25;4.70;99.90
47791;DHT22;33547;49.044;1.156;2023-02-15T09:01:53;4.80;99.90
47791;DHT22;33547;49.044;1.156;2023-02-15T09:04:20;4.70;99.90
47791;DHT22;33547;49.044;1.156;2023-02-15T09:06:48;4.40;99.90
47791;DHT22;33547;49.044;1.156;2023-02-15T09:09:14;4.30;99.90
47791;DHT22;33547;49.044;1.156;2023-02-15T09:11:42;4.30;99.90
47791;DHT22;33547;49.044;1.156;2023-02-15T09:14:13;4.20;99.90
47791;DHT22;33547;49.044;1.156;2023-02-15T09:16:40;3.90;99.90
47791;DHT22;33547;49.044;1.156;2023-02-15T09:19:07;3.70;99.90
47791;DHT22;33547;49.044;1.156;2023-02-15T09:21:36;3.80;99.90
47791;DHT22;33547;49.044;1.156;2023-02-15T09:24:05;3.70;99.90
47791;DHT22;33547;49.044;1.156;2023-02-15T09:26:33;3.90;99.90
47791;DHT22;33547;49.044;1.156;2023-02-15T09:29:00;4.00;99.90
47791;DHT22;33547;49.044;1.156;2023-02-15T09:31:29;4.10;99.90
47791;DHT22;33547;49.044;1.156;2023-02-15T09:33:55;4.30;99.90
47791;DHT22;33547;49.044;1.156;2023-02-15T09:36:30;4.40;99.90
47791;DHT22;33547;49.044;1.156;2023-02-15T09:39:16;4.60;99.90
47791;DHT22;33547;49.044;1.156;2023-02-15T10:03:17;6.20;99.90
47791;DHT22;33547;49.044;1.156;2023-02-15T10:14:43;7.70;99.90
47791;DHT22;33547;49.044;1.156;2023-02-15T10:25:50;9.30;99.90
47791;DHT22;33547;49.044;1.156;2023-02-15T10:28:23;9.60;99.90
47791;DHT22;33547;49.044;1.156;2023-02-15T10:30:50;9.70;99.90
47791;DHT22;33547;49.044;1.156;2023-02-15T10:44:23;10.90;99.90
47791;DHT22;33547;49.044;1.156;2023-02-15T11:06:34;14.00;93.10
47791;DHT22;33547;49.044;1.156;2023-02-15T11:09:09;14.70;92.00
47791;DHT22;33547;49.044;1.156;2023-02-15T11:11:37;15.30;92.30
47791;DHT22;33547;49.044;1.156;2023-02-15T11:14:15;15.00;90.90
47791;DHT22;33547;49.044;1.156;2023-02-15T11:16:50;14.90;90.80
47791;DHT22;33547;49.044;1.156;2023-02-15T11:21:50;14.60;91.60
47791;DHT22;33547;49.044;1.156;2023-02-15T11:24:20;14.80;91.10
47791;DHT22;33547;49.044;1.156;2023-02-15T11:37:41;13.90;92.20
47791;DHT22;33547;49.044;1.156;2023-02-15T11:40:54;13.40;92.30
47791;DHT22;33547;49.044;1.156;2023-02-15T11:46:03;15.00;91.00
47791;DHT22;33547;49.044;1.156;2023-02-15T11:48:31;15.70;90.40
47791;DHT22;33547;49.044;1.156;2023-02-15T11:50:58;16.20;88.50
47791;DHT22;33547;49.044;1.156;2023-02-15T11:53:25;16.50;86.70
47791;DHT22;33547;49.044;1.156;2023-02-15T11:55:54;16.40;86.50
47791;DHT22;33547;49.044;1.156;2023-02-15T11:58:26;16.80;89.20
47791;DHT22;33547;49.044;1.156;2023-02-15T12:00:58;16.20;86.70
47791;DHT22;33547;49.044;1.156;2023-02-15T12:03:32;15.80;87.60
47791;DHT22;33547;49.044;1.156;2023-02-15T12:06:02;15.60;87.60
47791;DHT22;33547;49.044;1.156;2023-02-15T12:08:38;15.70;90.00
47791;DHT22;33547;49.044;1.156;2023-02-15T12:11:09;15.80;89.10
47791;DHT22;33547;49.044;1.156;2023-02-15T12:13:57;15.70;87.80
47791;DHT22;33547;49.044;1.156;2023-02-15T12:16:24;15.70;90.10
47791;DHT22;33547;49.044;1.156;2023-02-15T12:18:53;15.60;86.60
47791;DHT22;33547;49.044;1.156;2023-02-15T12:21:33;16.00;85.30
47791;DHT22;33547;49.044;1.156;2023-02-15T12:24:09;16.10;83.30
47791;DHT22;33547;49.044;1.156;2023-02-15T12:26:40;16.10;83.00
47791;DHT22;33547;49.044;1.156;2023-02-15T12:29:16;16.20;80.40
47791;DHT22;33547;49.044;1.156;2023-02-15T12:31:49;16.30;78.20
47791;DHT22;33547;49.044;1.156;2023-02-15T12:34:22;16.40;77.70
47791;DHT22;33547;49.044;1.156;2023-02-15T12:36:52;16.50;77.30
47791;DHT22;33547;49.044;1.156;2023-02-15T12:39:30;16.30;74.80
47791;DHT22;33547;49.044;1.156;2023-02-15T12:41:57;16.20;75.40
47791;DHT22;33547;49.044;1.156;2023-02-15T12:44:34;16.00;74.50
47791;DHT22;33547;49.044;1.156;2023-02-15T12:47:04;15.90;73.30
47791;DHT22;33547;49.044;1.156;2023-02-15T12:49:36;16.10;75.20
47791;DHT22;33547;49.044;1.156;2023-02-15T12:52:23;16.00;73.10
47791;DHT22;33547;49.044;1.156;2023-02-15T12:54:49;16.10;72.60
47791;DHT22;33547;49.044;1.156;2023-02-15T12:57:31;16.10;73.80
47791;DHT22;33547;49.044;1.156;2023-02-15T12:59:59;16.20;72.70
47791;DHT22;33547;49.044;1.156;2023-02-15T13:02:44;16.20;72.60
47791;DHT22;33547;49.044;1.156;2023-02-15T13:05:21;16.30;73.10
47791;DHT22;33547;49.044;1.156;2023-02-15T13:07:55;16.20;71.80
47791;DHT22;33547;49.044;1.156;2023-02-15T13:12:50;16.00;73.30
47791;DHT22;33547;49.044;1.156;2023-02-15T13:15:28;16.00;72.90
47791;DHT22;33547;49.044;1.156;2023-02-15T13:17:57;16.00;74.50
47791;DHT22;33547;49.044;1.156;2023-02-15T13:20:25;16.10;75.40
47791;DHT22;33547;49.044;1.156;2023-02-15T13:23:01;16.10;77.20
47791;DHT22;33547;49.044;1.156;2023-02-15T13:25:31;16.00;75.30
47791;DHT22;33547;49.044;1.156;2023-02-15T13:28:02;16.00;71.80
47791;DHT22;33547;49.044;1.156;2023-02-15T13:30:34;16.10;74.50
47791;DHT22;33547;49.044;1.156;2023-02-15T13:33:05;16.10;74.30
47791;DHT22;33547;49.044;1.156;2023-02-15T13:38:43;16.20;75.20
47791;DHT22;33547;49.044;1.156;2023-02-15T13:41:24;16.20;73.70
47791;DHT22;33547;49.044;1.156;2023-02-15T13:46:54;16.00;78.60
47791;DHT22;33547;49.044;1.156;2023-02-15T13:52:23;16.00;77.90
47791;DHT22;33547;49.044;1.156;2023-02-15T13:58:09;16.00;77.30
47791;DHT22;33547;49.044;1.156;2023-02-15T14:17:18;15.50;81.10
47791;DHT22;33547;49.044;1.156;2023-02-15T14:19:57;15.40;81.10
47791;DHT22;33547;49.044;1.156;2023-02-15T14:22:36;15.30;81.60
47791;DHT22;33547;49.044;1.156;2023-02-15T14:30:31;15.20;81.80
47791;DHT22;33547;49.044;1.156;2023-02-15T14:33:07;15.20;81.80
47791;DHT22;33547;49.044;1.156;2023-02-15T14:35:34;15.10;82.20
47791;DHT22;33547;49.044;1.156;2023-02-15T14:44:13;14.90;81.40
47791;DHT22;33547;49.044;1.156;2023-02-15T14:46:47;14.80;83.30
47791;DHT22;33547;49.044;1.156;2023-02-15T14:49:25;14.90;81.90
47791;DHT22;33547;49.044;1.156;2023-02-15T14:56:45;14.80;81.40
47791;DHT22;33547;49.044;1.156;2023-02-15T15:01:38;14.80;81.70
47791;DHT22;33547;49.044;1.156;2023-02-15T15:04:14;14.80;81.30
47791;DHT22;33547;49.044;1.156;2023-02-15T15:06:59;14.80;81.60
47791;DHT22;33547;49.044;1.156;2023-02-15T15:09:28;14.70;82.50
47791;DHT22;33547;49.044;1.156;2023-02-15T15:14:43;14.60;82.10
47791;DHT22;33547;49.044;1.156;2023-02-15T15:20:37;14.50;82.70
47791;DHT22;33547;49.044;1.156;2023-02-15T15:31:19;14.40;83.40
47791;DHT22;33547;49.044;1.156;2023-02-15T15:47:40;14.10;86.60
47791;DHT22;33547;49.044;1.156;2023-02-15T15:50:14;14.10;86.10
47791;DHT22;33547;49.044;1.156;2023-02-15T15:52:47;14.10;87.10
47791;DHT22;33547;49.044;1.156;2023-02-15T15:55:17;14.00;87.40
47791;DHT22;33547;49.044;1.156;2023-02-15T15:57:45;14.00;87.70
47791;DHT22;33547;49.044;1.156;2023-02-15T16:03:23;14.00;88.30
47791;DHT22;33547;49.044;1.156;2023-02-15T16:05:49;13.90;88.00
47791;DHT22;33547;49.044;1.156;2023-02-15T16:08:39;13.90;87.80
47791;DHT22;33547;49.044;1.156;2023-02-15T16:11:24;13.90;88.40
47791;DHT22;33547;49.044;1.156;2023-02-15T16:13:51;13.80;89.10
47791;DHT22;33547;49.044;1.156;2023-02-15T16:16:26;13.80;89.40
47791;DHT22;33547;49.044;1.156;2023-02-15T16:18:54;13.60;90.00
47791;DHT22;33547;49.044;1.156;2023-02-15T16:21:23;13.60;90.20
47791;DHT22;33547;49.044;1.156;2023-02-15T16:23:59;13.50;90.40
47791;DHT22;33547;49.044;1.156;2023-02-15T16:29:00;13.40;91.80
47791;DHT22;33547;49.044;1.156;2023-02-15T16:31:26;13.40;92.50
47791;DHT22;33547;49.044;1.156;2023-02-15T16:33:54;13.20;92.60
47791;DHT22;33547;49.044;1.156;2023-02-15T16:36:27;13.10;93.00
47791;DHT22;33547;49.044;1.156;2023-02-15T16:41:27;13.00;93.60
47791;DHT22;33547;49.044;1.156;2023-02-15T16:43:55;12.90;93.90
47791;DHT22;33547;49.044;1.156;2023-02-15T16:46:26;12.70;94.10
47791;DHT22;33547;49.044;1.156;2023-02-15T16:48:56;12.50;94.60
47791;DHT22;33547;49.044;1.156;2023-02-15T16:51:29;12.30;95.00
47791;DHT22;33547;49.044;1.156;2023-02-15T16:53:57;12.10;95.40
47791;DHT22;33547;49.044;1.156;2023-02-15T16:56:29;12.00;96.00
47791;DHT22;33547;49.044;1.156;2023-02-15T16:58:59;11.80;96.20
47791;DHT22;33547;49.044;1.156;2023-02-15T17:01:31;11.70;96.60
47791;DHT22;33547;49.044;1.156;2023-02-15T17:07:14;11.30;97.40
47791;DHT22;33547;49.044;1.156;2023-02-15T17:09:49;11.00;97.90
47791;DHT22;33547;49.044;1.156;2023-02-15T17:12:51;10.80;98.40
47791;DHT22;33547;49.044;1.156;2023-02-15T17:18:22;10.40;99.10
47791;DHT22;33547;49.044;1.156;2023-02-15T17:20:50;10.30;99.40
47791;DHT22;33547;49.044;1.156;2023-02-15T17:23:28;10.20;99.60
47791;DHT22;33547;49.044;1.156;2023-02-15T17:25:54;10.10;99.90
47791;DHT22;33547;49.044;1.156;2023-02-15T17:28:26;9.90;99.90
47791;DHT22;33547;49.044;1.156;2023-02-15T17:30:53;9.90;99.90
47791;DHT22;33547;49.044;1.156;2023-02-15T17:33:36;9.70;99.90
47791;DHT22;33547;49.044;1.156;2023-02-15T17:36:22;9.60;99.90
47791;DHT22;33547;49.044;1.156;2023-02-15T17:49:18;9.10;99.90
47791;DHT22;33547;49.044;1.156;2023-02-15T18:06:22;8.10;99.90
47791;DHT22;33547;49.044;1.156;2023-02-15T20:25:39;4.90;99.90
47791;DHT22;33547;49.044;1.156;2023-02-15T21:28:18;4.20;99.90
47791;DHT22;33547;49.044;1.156;2023-02-15T21:30:45;4.00;99.90
47791;DHT22;33547;49.044;1.156;2023-02-15T21:33:11;4.10;99.90
47791;DHT22;33547;49.044;1.156;2023-02-15T21:35:37;4.00;99.90
47791;DHT22;33547;49.044;1.156;2023-02-15T21:38:05;4.00;99.90
47791;DHT22;33547;49.044;1.156;2023-02-15T21:40:31;4.00;99.90
47791;DHT22;33547;49.044;1.156;2023-02-15T21:42:58;3.90;99.90
47791;DHT22;33547;49.044;1.156;2023-02-15T21:45:50;3.90;99.90
47791;DHT22;33547;49.044;1.156;2023-02-15T21:48:42;3.90;99.90
47791;DHT22;33547;49.044;1.156;2023-02-15T21:51:07;3.80;99.90
47791;DHT22;33547;49.044;1.156;2023-02-15T21:53:52;3.80;99.90
47791;DHT22;33547;49.044;1.156;2023-02-15T21:56:19;3.70;99.90
47791;DHT22;33547;49.044;1.156;2023-02-15T21:58:45;3.70;99.90
47791;DHT22;33547;49.044;1.156;2023-02-15T22:01:23;3.60;99.90
47791;DHT22;33547;49.044;1.156;2023-02-15T22:03:50;3.60;99.90
47791;DHT22;33547;49.044;1.156;2023-02-15T22:06:16;3.60;99.90
47791;DHT22;33547;49.044;1.156;2023-02-15T22:08:43;3.60;99.90
47791;DHT22;33547;49.044;1.156;2023-02-15T22:11:11;3.70;99.90
47791;DHT22;33547;49.044;1.156;2023-02-15T22:13:38;3.60;99.90
47791;DHT22;33547;49.044;1.156;2023-02-15T22:16:04;3.60;99.90
47791;DHT22;33547;49.044;1.156;2023-02-15T22:18:33;3.60;99.90
47791;DHT22;33547;49.044;1.156;2023-02-15T22:20:59;3.50;99.90
47791;DHT22;33547;49.044;1.156;2023-02-15T22:23:25;3.40;99.90
47791;DHT22;33547;49.044;1.156;2023-02-15T22:25:56;3.40;99.90
47791;DHT22;33547;49.044;1.156;2023-02-15T22:28:26;3.40;99.90
47791;DHT22;33547;49.044;1.156;2023-02-15T22:30:54;3.40;99.90
47791;DHT22;33547;49.044;1.156;2023-02-15T22:33:24;3.40;99.90
47791;DHT22;33547;49.044;1.156;2023-02-15T22:35:50;3.40;99.90
47791;DHT22;33547;49.044;1.156;2023-02-15T22:38:16;3.40;99.90
47791;DHT22;33547;49.044;1.156;2023-02-15T22:40:42;3.30;99.90
47791;DHT22;33547;49.044;1.156;2023-02-15T22:43:22;3.30;99.90
47791;DHT22;33547;49.044;1.156;2023-02-15T22:45:59;3.20;99.90
47791;DHT22;33547;49.044;1.156;2023-02-15T22:48:25;3.20;99.90
47791;DHT22;33547;49.044;1.156;2023-02-15T22:50:51;3.30;99.90
47791;DHT22;33547;49.044;1.156;2023-02-15T22:53:16;3.30;99.90
47791;DHT22;33547;49.044;1.156;2023-02-15T22:55:42;3.30;99.90
47791;DHT22;33547;49.044;1.156;2023-02-15T22:58:15;3.30;99.90
47791;DHT22;33547;49.044;1.156;2023-02-15T23:00:42;3.30;99.90
47791;DHT22;33547;49.044;1.156;2023-02-15T23:03:20;3.30;99.90
47791;DHT22;33547;49.044;1.156;2023-02-15T23:05:46;3.30;99.90
47791;DHT22;33547;49.044;1.156;2023-02-15T23:08:12;3.30;99.90
47791;DHT22;33547;49.044;1.156;2023-02-15T23:10:38;3.40;99.90
47791;DHT22;33547;49.044;1.156;2023-02-15T23:13:18;3.40;99.90
47791;DHT22;33547;49.044;1.156;2023-02-15T23:15:50;3.30;99.90
47791;DHT22;33547;49.044;1.156;2023-02-15T23:20:56;3.40;99.90
47791;DHT22;33547;49.044;1.156;2023-02-15T23:23:33;3.60;99.90
47791;DHT22;33547;49.044;1.156;2023-02-15T23:26:00;3.60;99.90
47791;DHT22;33547;49.044;1.156;2023-02-15T23:28:31;3.70;99.90
47791;DHT22;33547;49.044;1.156;2023-02-15T23:30:59;3.70;99.90
47791;DHT22;33547;49.044;1.156;2023-02-15T23:33:29;3.60;99.90
47791;DHT22;33547;49.044;1.156;2023-02-15T23:35:55;3.60;99.90
47791;DHT22;33547;49.044;1.156;2023-02-15T23:38:29;3.60;99.90
47791;DHT22;33547;49.044;1.156;2023-02-15T23:40:58;3.70;99.90
47791;DHT22;33547;49.044;1.156;2023-02-15T23:43:47;3.90;99.90
47791;DHT22;33547;49.044;1.156;2023-02-15T23:46:31;4.10;99.90
47791;DHT22;33547;49.044;1.156;2023-02-15T23:48:58;4.20;99.90
47791;DHT22;33547;49.044;1.156;2023-02-15T23:51:29;4.30;99.90
47791;DHT22;33547;49.044;1.156;2023-02-15T23:53:55;4.30;99.90
47791;DHT22;33547;49.044;1.156;2023-02-15T23:56:21;4.30;99.90
47791;DHT22;33547;49.044;1.156;2023-02-15T23:58:47;4.30;99.90
